sensor_id;sensor_type;location;lat;lon;timestamp;temperature;humidity
18712;DHT22;9485;49.386;8.674;2023-05-10T00:03:25;17.30;96.10
18712;DHT22;9485;49.386;8.674;2023-05-10T00:08:45;17.30;96.30
18712;DHT22;9485;49.386;8.674;2023-05-10T00:14:07;17.30;96.30
18712;DHT22;9485;49.386;8.674;2023-05-10T00:19:28;17.30;96.20
18712;DHT22;9485;49.386;8.674;2023-05-10T00:24:48;17.20;96.20
18712;DHT22;9485;49.386;8.674;2023-05-10T00:30:10;17.20;96.20
18712;DHT22;9485;49.386;8.674;2023-05-10T00:35:31;17.10;96.20
18712;DHT22;9485;49.386;8.674;2023-05-10T00:40:52;17.10;96.40
18712;DHT22;9485;49.386;8.674;2023-05-10T00:46:20;17.10;96.30
18712;DHT22;9485;49.386;8.674;2023-05-10T00:51:41;17.10;96.20
18712;DHT22;9485;49.386;8.674;2023-05-10T00:57:03;17.00;96.30
18712;DHT22;9485;49.386;8.674;2023-05-10T01:02:25;17.00;96.30
18712;DHT22;9485;49.386;8.674;2023-05-10T01:07:46;17.00;96.30
18712;DHT22;9485;49.386;8.674;2023-05-10T01:13:07;17.00;96.40
18712;DHT22;9485;49.386;8.674;2023-05-10T01:18:30;17.00;96.50
18712;DHT22;9485;49.386;8.674;2023-05-10T01:24:17;17.00;96.40
18712;DHT22;9485;49.386;8.674;2023-05-10T01:30:35;17.00;96.30
18712;DHT22;9485;49.386;8.674;2023-05-10T01:36:37;17.00;96.50
18712;DHT22;9485;49.386;8.674;2023-05-10T01:42:07;17.00;96.40
18712;DHT22;9485;49.386;8.674;2023-05-10T01:47:39;17.00;96.40
18712;DHT22;9485;49.386;8.674;2023-05-10T01:53:06;16.90;96.40
18712;DHT22;9485;49.386;8.674;2023-05-10T01:58:31;16.90;96.50
18712;DHT22;9485;49.386;8.674;2023-05-10T02:03:55;16.90;96.60
18712;DHT22;9485;49.386;8.674;2023-05-10T02:09:20;16.90;96.70
18712;DHT22;9485;49.386;8.674;2023-05-10T02:14:44;16.90;96.70
18712;DHT22;9485;49.386;8.674;2023-05-10T02:20:07;16.90;96.60
18712;DHT22;9485;49.386;8.674;2023-05-10T02:25:31;16.90;96.60
18712;DHT22;9485;49.386;8.674;2023-05-10T02:30:54;16.90;96.50
18712;DHT22;9485;49.386;8.674;2023-05-10T02:36:15;16.90;96.50
18712;DHT22;9485;49.386;8.674;2023-05-10T02:41:39;16.90;96.50
18712;DHT22;9485;49.386;8.674;2023-05-10T02:47:01;16.90;96.60
18712;DHT22;9485;49.386;8.674;2023-05-10T02:52:25;16.90;96.60
18712;DHT22;9485;49.386;8.674;2023-05-10T02:57:58;16.10;96.10
18712;DHT22;9485;49.386;8.674;2023-05-10T03:03:20;16.80;96.10
18712;DHT22;9485;49.386;8.674;2023-05-10T03:08:43;16.80;96.20
18712;DHT22;9485;49.386;8.674;2023-05-10T03:14:21;16.70;96.30
18712;DHT22;9485;49.386;8.674;2023-05-10T03:19:54;16.70;96.20
18712;DHT22;9485;49.386;8.674;2023-05-10T03:25:19;16.70;96.30
18712;DHT22;9485;49.386;8.674;2023-05-10T03:30:44;16.60;96.30
18712;DHT22;9485;49.386;8.674;2023-05-10T03:36:06;16.60;96.30
18712;DHT22;9485;49.386;8.674;2023-05-10T03:41:27;16.50;96.40
18712;DHT22;9485;49.386;8.674;2023-05-10T03:46:49;16.50;96.50
18712;DHT22;9485;49.386;8.674;2023-05-10T03:52:10;16.00;96.50
18712;DHT22;9485;49.386;8.674;2023-05-10T03:57:31;16.50;96.60
18712;DHT22;9485;49.386;8.674;2023-05-10T04:02:54;16.60;96.50
18712;DHT22;9485;49.386;8.674;2023-05-10T04:08:15;16.60;96.50
18712;DHT22;9485;49.386;8.674;2023-05-10T04:13:37;16.50;96.50
18712;DHT22;9485;49.386;8.674;2023-05-10T04:18:59;16.50;96.40
18712;DHT22;9485;49.386;8.674;2023-05-10T04:24:20;16.50;96.40
18712;DHT22;9485;49.386;8.674;2023-05-10T04:29:40;16.50;96.40
18712;DHT22;9485;49.386;8.674;2023-05-10T04:35:02;16.40;96.40
18712;DHT22;9485;49.386;8.674;2023-05-10T04:40:24;16.40;96.40
18712;DHT22;9485;49.386;8.674;2023-05-10T04:45:44;16.40;96.50
18712;DHT22;9485;49.386;8.674;2023-05-10T04:51:06;16.40;96.60
18712;DHT22;9485;49.386;8.674;2023-05-10T04:56:27;16.40;96.70
18712;DHT22;9485;49.386;8.674;2023-05-10T05:01:47;16.40;96.70
18712;DHT22;9485;49.386;8.674;2023-05-10T05:07:09;16.40;96.70
18712;DHT22;9485;49.386;8.674;2023-05-10T05:12:30;16.40;96.70
18712;DHT22;9485;49.386;8.674;2023-05-10T05:17:51;16.40;96.80
18712;DHT22;9485;49.386;8.674;2023-05-10T05:23:13;16.50;96.80
18712;DHT22;9485;49.386;8.674;2023-05-10T05:28:34;16.50;96.70
18712;DHT22;9485;49.386;8.674;2023-05-10T05:33:56;16.50;96.70
18712;DHT22;9485;49.386;8.674;2023-05-10T05:39:18;16.50;96.70
18712;DHT22;9485;49.386;8.674;2023-05-10T05:44:39;16.60;96.70
18712;DHT22;9485;49.386;8.674;2023-05-10T05:50:00;16.60;96.70
18712;DHT22;9485;49.386;8.674;2023-05-10T05:55:23;16.60;96.70
18712;DHT22;9485;49.386;8.674;2023-05-10T06:00:44;16.80;96.80
18712;DHT22;9485;49.386;8.674;2023-05-10T06:06:10;16.80;96.80
18712;DHT22;9485;49.386;8.674;2023-05-10T06:11:33;16.80;96.80
18712;DHT22;9485;49.386;8.674;2023-05-10T06:16:54;16.90;96.60
18712;DHT22;9485;49.386;8.674;2023-05-10T06:22:15;16.90;96.50
18712;DHT22;9485;49.386;8.674;2023-05-10T06:27:37;16.90;96.50
18712;DHT22;9485;49.386;8.674;2023-05-10T06:32:58;16.90;96.30
18712;DHT22;9485;49.386;8.674;2023-05-10T06:38:19;16.90;96.50
18712;DHT22;9485;49.386;8.674;2023-05-10T06:43:41;17.00;96.60
18712;DHT22;9485;49.386;8.674;2023-05-10T06:49:02;17.10;96.70
18712;DHT22;9485;49.386;8.674;2023-05-10T06:54:24;17.20;96.70
18712;DHT22;9485;49.386;8.674;2023-05-10T06:59:46;17.20;96.70
18712;DHT22;9485;49.386;8.674;2023-05-10T07:05:07;17.30;96.60
18712;DHT22;9485;49.386;8.674;2023-05-10T07:10:29;17.40;96.50
18712;DHT22;9485;49.386;8.674;2023-05-10T07:15:51;17.50;96.50
18712;DHT22;9485;49.386;8.674;2023-05-10T07:21:12;17.50;96.60
18712;DHT22;9485;49.386;8.674;2023-05-10T07:26:33;17.50;96.20
18712;DHT22;9485;49.386;8.674;2023-05-10T07:31:55;17.50;96.10
18712;DHT22;9485;49.386;8.674;2023-05-10T07:37:16;17.50;96.20
18712;DHT22;9485;49.386;8.674;2023-05-10T07:42:36;18.80;96.70
18712;DHT22;9485;49.386;8.674;2023-05-10T07:47:58;17.60;96.40
18712;DHT22;9485;49.386;8.674;2023-05-10T07:53:19;17.60;96.60
18712;DHT22;9485;49.386;8.674;2023-05-10T07:58:40;17.70;96.70
18712;DHT22;9485;49.386;8.674;2023-05-10T08:04:02;17.80;96.60
18712;DHT22;9485;49.386;8.674;2023-05-10T08:09:22;17.90;96.70
18712;DHT22;9485;49.386;8.674;2023-05-10T08:14:43;18.10;96.90
18712;DHT22;9485;49.386;8.674;2023-05-10T08:20:06;18.30;96.90
18712;DHT22;9485;49.386;8.674;2023-05-10T08:25:27;18.50;96.60
18712;DHT22;9485;49.386;8.674;2023-05-10T08:30:50;18.70;96.80
18712;DHT22;9485;49.386;8.674;2023-05-10T08:36:12;19.00;97.10
18712;DHT22;9485;49.386;8.674;2023-05-10T08:41:39;19.30;96.80
18712;DHT22;9485;49.386;8.674;2023-05-10T08:47:04;19.50;96.20
18712;DHT22;9485;49.386;8.674;2023-05-10T08:52:28;19.80;95.90
18712;DHT22;9485;49.386;8.674;2023-05-10T08:57:50;20.10;96.10
18712;DHT22;9485;49.386;8.674;2023-05-10T09:03:11;20.40;95.90
18712;DHT22;9485;49.386;8.674;2023-05-10T09:08:34;20.70;95.10
18712;DHT22;9485;49.386;8.674;2023-05-10T09:13:57;20.80;94.00
18712;DHT22;9485;49.386;8.674;2023-05-10T09:19:18;20.70;93.60
18712;DHT22;9485;49.386;8.674;2023-05-10T09:24:42;20.40;93.40
18712;DHT22;9485;49.386;8.674;2023-05-10T09:30:05;20.40;92.80
18712;DHT22;9485;49.386;8.674;2023-05-10T09:35:29;20.10;93.10
18712;DHT22;9485;49.386;8.674;2023-05-10T09:40:53;19.90;93.30
18712;DHT22;9485;49.386;8.674;2023-05-10T09:46:15;19.80;93.30
18712;DHT22;9485;49.386;8.674;2023-05-10T09:51:36;19.70;93.70
18712;DHT22;9485;49.386;8.674;2023-05-10T09:56:59;19.80;94.10
18712;DHT22;9485;49.386;8.674;2023-05-10T10:02:20;19.80;93.90
18712;DHT22;9485;49.386;8.674;2023-05-10T10:07:41;19.90;94.20
18712;DHT22;9485;49.386;8.674;2023-05-10T10:13:04;20.00;94.40
18712;DHT22;9485;49.386;8.674;2023-05-10T10:18:25;20.10;94.20
18712;DHT22;9485;49.386;8.674;2023-05-10T10:23:47;20.20;94.20
18712;DHT22;9485;49.386;8.674;2023-05-10T10:29:19;20.40;93.90
18712;DHT22;9485;49.386;8.674;2023-05-10T10:34:44;20.40;92.70
18712;DHT22;9485;49.386;8.674;2023-05-10T10:40:22;20.40;93.00
18712;DHT22;9485;49.386;8.674;2023-05-10T10:46:09;20.20;91.50
18712;DHT22;9485;49.386;8.674;2023-05-10T10:51:32;20.10;91.60
18712;DHT22;9485;49.386;8.674;2023-05-10T10:57:10;20.00;93.00
18712;DHT22;9485;49.386;8.674;2023-05-10T11:02:43;20.10;92.30
18712;DHT22;9485;49.386;8.674;2023-05-10T11:08:20;20.40;93.20
18712;DHT22;9485;49.386;8.674;2023-05-10T11:13:48;20.80;92.90
18712;DHT22;9485;49.386;8.674;2023-05-10T11:19:12;21.30;94.50
18712;DHT22;9485;49.386;8.674;2023-05-10T11:24:34;21.90;93.50
18712;DHT22;9485;49.386;8.674;2023-05-10T11:29:55;22.30;92.50
18712;DHT22;9485;49.386;8.674;2023-05-10T11:35:18;22.40;91.70
18712;DHT22;9485;49.386;8.674;2023-05-10T11:40:39;22.40;91.50
18712;DHT22;9485;49.386;8.674;2023-05-10T11:46:01;22.30;91.30
18712;DHT22;9485;49.386;8.674;2023-05-10T11:51:24;22.30;91.10
18712;DHT22;9485;49.386;8.674;2023-05-10T11:56:46;22.20;90.40
18712;DHT22;9485;49.386;8.674;2023-05-10T12:02:06;22.10;90.70
18712;DHT22;9485;49.386;8.674;2023-05-10T12:07:32;22.20;91.10
18712;DHT22;9485;49.386;8.674;2023-05-10T12:12:53;22.40;91.00
18712;DHT22;9485;49.386;8.674;2023-05-10T12:18:14;22.60;90.00
18712;DHT22;9485;49.386;8.674;2023-05-10T12:23:49;22.50;90.00
18712;DHT22;9485;49.386;8.674;2023-05-10T12:29:14;22.50;89.70
18712;DHT22;9485;49.386;8.674;2023-05-10T12:34:38;22.30;86.50
18712;DHT22;9485;49.386;8.674;2023-05-10T12:40:03;22.10;87.10
18712;DHT22;9485;49.386;8.674;2023-05-10T12:45:25;21.90;87.10
18712;DHT22;9485;49.386;8.674;2023-05-10T12:50:46;21.70;88.30
18712;DHT22;9485;49.386;8.674;2023-05-10T12:56:08;21.60;88.50
18712;DHT22;9485;49.386;8.674;2023-05-10T13:01:29;21.60;89.20
18712;DHT22;9485;49.386;8.674;2023-05-10T13:06:51;22.60;90.40
18712;DHT22;9485;49.386;8.674;2023-05-10T13:12:13;21.90;90.50
18712;DHT22;9485;49.386;8.674;2023-05-10T13:17:34;22.20;90.70
18712;DHT22;9485;49.386;8.674;2023-05-10T13:22:55;22.70;91.00
18712;DHT22;9485;49.386;8.674;2023-05-10T13:28:17;23.00;90.50
18712;DHT22;9485;49.386;8.674;2023-05-10T13:33:38;23.40;89.30
18712;DHT22;9485;49.386;8.674;2023-05-10T13:38:59;23.60;89.70
18712;DHT22;9485;49.386;8.674;2023-05-10T13:44:22;23.90;87.50
18712;DHT22;9485;49.386;8.674;2023-05-10T13:49:43;24.00;84.50
18712;DHT22;9485;49.386;8.674;2023-05-10T13:55:04;24.10;83.80
18712;DHT22;9485;49.386;8.674;2023-05-10T14:00:27;24.00;83.40
18712;DHT22;9485;49.386;8.674;2023-05-10T14:05:49;24.00;83.80
18712;DHT22;9485;49.386;8.674;2023-05-10T14:11:10;23.90;83.60
18712;DHT22;9485;49.386;8.674;2023-05-10T14:16:33;23.90;83.00
18712;DHT22;9485;49.386;8.674;2023-05-10T14:21:54;23.80;80.20
18712;DHT22;9485;49.386;8.674;2023-05-10T14:27:15;23.70;81.40
18712;DHT22;9485;49.386;8.674;2023-05-10T14:32:37;23.70;80.90
18712;DHT22;9485;49.386;8.674;2023-05-10T14:37:58;23.70;80.40
18712;DHT22;9485;49.386;8.674;2023-05-10T14:43:18;23.50;81.40
18712;DHT22;9485;49.386;8.674;2023-05-10T14:48:41;23.80;81.30
18712;DHT22;9485;49.386;8.674;2023-05-10T14:54:02;23.40;80.70
18712;DHT22;9485;49.386;8.674;2023-05-10T14:59:22;23.30;81.00
18712;DHT22;9485;49.386;8.674;2023-05-10T15:04:45;23.10;80.80
18712;DHT22;9485;49.386;8.674;2023-05-10T15:10:06;22.30;79.30
18712;DHT22;9485;49.386;8.674;2023-05-10T15:15:28;22.90;80.30
18712;DHT22;9485;49.386;8.674;2023-05-10T15:20:50;22.80;80.60
18712;DHT22;9485;49.386;8.674;2023-05-10T15:26:11;23.40;79.20
18712;DHT22;9485;49.386;8.674;2023-05-10T15:31:32;22.50;79.60
18712;DHT22;9485;49.386;8.674;2023-05-10T15:36:55;22.40;80.60
18712;DHT22;9485;49.386;8.674;2023-05-10T15:42:16;22.30;80.10
18712;DHT22;9485;49.386;8.674;2023-05-10T15:47:38;22.20;81.80
18712;DHT22;9485;49.386;8.674;2023-05-10T15:53:01;22.10;81.80
18712;DHT22;9485;49.386;8.674;2023-05-10T15:58:22;23.10;81.60
18712;DHT22;9485;49.386;8.674;2023-05-10T16:03:43;22.10;82.20
18712;DHT22;9485;49.386;8.674;2023-05-10T16:09:05;22.10;81.00
18712;DHT22;9485;49.386;8.674;2023-05-10T16:14:26;22.20;80.10
18712;DHT22;9485;49.386;8.674;2023-05-10T16:19:47;22.10;81.60
18712;DHT22;9485;49.386;8.674;2023-05-10T16:25:09;22.10;81.30
18712;DHT22;9485;49.386;8.674;2023-05-10T16:30:30;22.10;81.70
18712;DHT22;9485;49.386;8.674;2023-05-10T16:35:51;22.00;82.00
18712;DHT22;9485;49.386;8.674;2023-05-10T16:41:13;22.00;81.60
18712;DHT22;9485;49.386;8.674;2023-05-10T16:46:33;21.90;80.80
18712;DHT22;9485;49.386;8.674;2023-05-10T16:51:54;21.80;82.00
18712;DHT22;9485;49.386;8.674;2023-05-10T16:57:16;21.60;81.60
18712;DHT22;9485;49.386;8.674;2023-05-10T17:02:37;21.60;81.20
18712;DHT22;9485;49.386;8.674;2023-05-10T17:07:58;20.40;81.40
18712;DHT22;9485;49.386;8.674;2023-05-10T17:13:20;21.40;81.90
18712;DHT22;9485;49.386;8.674;2023-05-10T17:18:41;21.30;80.70
18712;DHT22;9485;49.386;8.674;2023-05-10T17:24:04;21.20;81.80
18712;DHT22;9485;49.386;8.674;2023-05-10T17:29:26;21.10;82.00
18712;DHT22;9485;49.386;8.674;2023-05-10T17:34:47;21.00;81.00
18712;DHT22;9485;49.386;8.674;2023-05-10T17:40:08;20.50;81.30
18712;DHT22;9485;49.386;8.674;2023-05-10T17:45:31;20.90;82.00
18712;DHT22;9485;49.386;8.674;2023-05-10T17:50:52;20.80;81.90
18712;DHT22;9485;49.386;8.674;2023-05-10T17:56:13;20.60;81.70
18712;DHT22;9485;49.386;8.674;2023-05-10T18:01:36;20.60;81.70
18712;DHT22;9485;49.386;8.674;2023-05-10T18:06:56;20.40;80.80
18712;DHT22;9485;49.386;8.674;2023-05-10T18:12:19;20.30;82.00
18712;DHT22;9485;49.386;8.674;2023-05-10T18:17:42;20.20;82.40
18712;DHT22;9485;49.386;8.674;2023-05-10T18:23:02;20.10;81.60
18712;DHT22;9485;49.386;8.674;2023-05-10T18:28:24;20.00;82.60
18712;DHT22;9485;49.386;8.674;2023-05-10T18:33:47;19.90;82.50
18712;DHT22;9485;49.386;8.674;2023-05-10T18:39:08;19.70;82.40
18712;DHT22;9485;49.386;8.674;2023-05-10T18:44:29;19.60;83.40
18712;DHT22;9485;49.386;8.674;2023-05-10T18:49:51;19.60;83.60
18712;DHT22;9485;49.386;8.674;2023-05-10T18:55:12;19.40;82.90
18712;DHT22;9485;49.386;8.674;2023-05-10T19:00:32;19.30;83.50
18712;DHT22;9485;49.386;8.674;2023-05-10T19:05:54;19.10;84.00
18712;DHT22;9485;49.386;8.674;2023-05-10T19:11:15;19.10;83.40
18712;DHT22;9485;49.386;8.674;2023-05-10T19:16:36;19.00;84.10
18712;DHT22;9485;49.386;8.674;2023-05-10T19:21:58;19.00;84.30
18712;DHT22;9485;49.386;8.674;2023-05-10T19:27:19;18.90;83.90
18712;DHT22;9485;49.386;8.674;2023-05-10T19:32:40;18.90;84.10
18712;DHT22;9485;49.386;8.674;2023-05-10T19:38:03;18.80;84.00
18712;DHT22;9485;49.386;8.674;2023-05-10T19:43:23;18.70;83.50
18712;DHT22;9485;49.386;8.674;2023-05-10T19:48:44;18.60;83.90
18712;DHT22;9485;49.386;8.674;2023-05-10T19:54:06;18.50;84.00
18712;DHT22;9485;49.386;8.674;2023-05-10T19:59:27;18.50;83.60
18712;DHT22;9485;49.386;8.674;2023-05-10T20:04:47;19.60;84.70
18712;DHT22;9485;49.386;8.674;2023-05-10T20:10:10;18.30;84.00
18712;DHT22;9485;49.386;8.674;2023-05-10T20:15:30;18.20;83.80
18712;DHT22;9485;49.386;8.674;2023-05-10T20:20:56;18.20;84.60
18712;DHT22;9485;49.386;8.674;2023-05-10T20:26:19;18.10;84.50
18712;DHT22;9485;49.386;8.674;2023-05-10T20:31:40;18.10;85.40
18712;DHT22;9485;49.386;8.674;2023-05-10T20:37:01;17.90;85.40
18712;DHT22;9485;49.386;8.674;2023-05-10T20:42:23;18.00;85.70
18712;DHT22;9485;49.386;8.674;2023-05-10T20:47:43;17.90;85.60
18712;DHT22;9485;49.386;8.674;2023-05-10T20:53:04;17.90;86.20
18712;DHT22;9485;49.386;8.674;2023-05-10T20:58:26;17.80;86.40
18712;DHT22;9485;49.386;8.674;2023-05-10T21:03:47;17.80;86.40
18712;DHT22;9485;49.386;8.674;2023-05-10T21:09:08;17.70;87.00
18712;DHT22;9485;49.386;8.674;2023-05-10T21:14:30;17.70;87.20
18712;DHT22;9485;49.386;8.674;2023-05-10T21:19:50;17.60;87.30
18712;DHT22;9485;49.386;8.674;2023-05-10T21:25:11;17.60;87.80
18712;DHT22;9485;49.386;8.674;2023-05-10T21:30:33;17.50;88.00
18712;DHT22;9485;49.386;8.674;2023-05-10T21:35:54;17.40;88.00
18712;DHT22;9485;49.386;8.674;2023-05-10T21:41:14;17.30;88.20
18712;DHT22;9485;49.386;8.674;2023-05-10T21:46:36;17.30;88.50
18712;DHT22;9485;49.386;8.674;2023-05-10T21:51:57;17.10;88.60
18712;DHT22;9485;49.386;8.674;2023-05-10T21:57:17;16.40;88.60
18712;DHT22;9485;49.386;8.674;2023-05-10T22:02:40;17.00;89.30
18712;DHT22;9485;49.386;8.674;2023-05-10T22:08:01;16.90;89.40
18712;DHT22;9485;49.386;8.674;2023-05-10T22:13:21;15.80;89.20
18712;DHT22;9485;49.386;8.674;2023-05-10T22:18:46;16.70;90.00
18712;DHT22;9485;49.386;8.674;2023-05-10T22:24:06;16.60;89.90
18712;DHT22;9485;49.386;8.674;2023-05-10T22:29:28;16.50;90.20
18712;DHT22;9485;49.386;8.674;2023-05-10T22:34:50;16.50;90.30
18712;DHT22;9485;49.386;8.674;2023-05-10T22:40:11;16.50;90.40
18712;DHT22;9485;49.386;8.674;2023-05-10T22:45:32;16.40;90.60
18712;DHT22;9485;49.386;8.674;2023-05-10T22:50:54;16.30;90.60
18712;DHT22;9485;49.386;8.674;2023-05-10T22:56:14;16.20;90.60
18712;DHT22;9485;49.386;8.674;2023-05-10T23:01:35;16.20;90.80
18712;DHT22;9485;49.386;8.674;2023-05-10T23:06:58;16.20;90.90
18712;DHT22;9485;49.386;8.674;2023-05-10T23:12:18;16.20;90.90
18712;DHT22;9485;49.386;8.674;2023-05-10T23:17:39;17.60;91.50
18712;DHT22;9485;49.386;8.674;2023-05-10T23:23:01;16.20;91.20
18712;DHT22;9485;49.386;8.674;2023-05-10T23:28:22;16.20;91.20
18712;DHT22;9485;49.386;8.674;2023-05-10T23:33:42;16.10;91.30
18712;DHT22;9485;49.386;8.674;2023-05-10T23:39:04;16.10;91.40
18712;DHT22;9485;49.386;8.674;2023-05-10T23:44:26;16.10;91.40
18712;DHT22;9485;49.386;8.674;2023-05-10T23:49:46;16.00;91.40
18712;DHT22;9485;49.386;8.674;2023-05-10T23:55:10;16.00;91.50
